Time;durP1;ratioP1;P1;durP2;ratioP2;P2;SDS_P1;SDS_P2;PMS_P1;PMS_P2;Temp;Humidity;BMP_temperature;BMP_pressure;BME280_temperature;BME280_humidity;BME280_pressure;Samples;Min_cycle;Max_cycle;Signal;HPM_P1;HPM_P2
2022/04/19 00:00:12;;;;;;;9.00;5.47;;;5.90;79.90;;;;;;5072255;28;20531;-76
2022/04/19 00:02:40;;;;;;;9.37;5.60;;;5.90;79.50;;;;;;5067404;28;20488;-75
2022/04/19 00:05:09;;;;;;;10.60;5.77;;;5.90;79.50;;;;;;5058913;28;20952;-76
2022/04/19 00:07:37;;;;;;;6.97;5.00;;;5.90;79.10;;;;;;5058686;28;20486;-75
2022/04/19 00:10:04;;;;;;;6.47;5.23;;;5.80;79.30;;;;;;5078841;28;20484;-74
2022/04/19 00:12:32;;;;;;;5.60;5.03;;;5.70;79.70;;;;;;5073228;28;20467;-76
2022/04/19 00:14:59;;;;;;;7.23;5.50;;;5.70;79.30;;;;;;5066645;28;20494;-75
2022/04/19 00:17:25;;;;;;;5.57;4.73;;;5.70;79.20;;;;;;5066109;28;20497;-75
2022/04/19 00:19:53;;;;;;;6.33;5.10;;;5.70;79.30;;;;;;5065555;28;20479;-75
2022/04/19 00:22:20;;;;;;;8.50;5.27;;;5.70;78.60;;;;;;5071173;28;20972;-76
2022/04/19 00:24:48;;;;;;;7.83;5.80;;;5.70;78.70;;;;;;5070143;28;20571;-76
2022/04/19 00:27:14;;;;;;;7.43;5.40;;;5.70;78.90;;;;;;5071147;28;20489;-75
2022/04/19 00:29:41;;;;;;;8.10;5.13;;;5.70;79.20;;;;;;5071951;28;20473;-76
2022/04/19 00:32:09;;;;;;;8.80;5.80;;;5.70;78.50;;;;;;5066736;28;20499;-75
2022/04/19 00:34:35;;;;;;;10.50;7.30;;;5.60;79.00;;;;;;5075698;28;20985;-76
2022/04/19 00:37:04;;;;;;;6.70;5.70;;;5.40;79.90;;;;;;5071964;28;20479;-72
2022/04/19 00:39:31;;;;;;;7.30;5.90;;;5.20;80.30;;;;;;5073286;28;20599;-75
2022/04/19 00:41:57;;;;;;;6.80;5.10;;;4.90;81.40;;;;;;5074896;28;20559;-75
2022/04/19 00:44:25;;;;;;;7.80;5.57;;;4.80;82.10;;;;;;5069124;28;20535;-74
2022/04/19 00:46:51;;;;;;;7.33;5.00;;;4.90;81.90;;;;;;5058039;28;20487;-76
2022/04/19 00:49:18;;;;;;;6.70;5.60;;;5.00;81.40;;;;;;5077756;28;20484;-75
2022/04/19 00:51:45;;;;;;;6.00;5.40;;;5.00;81.10;;;;;;5072340;28;20554;-76
2022/04/19 00:54:15;;;;;;;8.40;5.80;;;5.00;81.20;;;;;;5071755;28;21057;-74
2022/04/19 00:56:43;;;;;;;7.50;5.50;;;5.10;81.30;;;;;;5058295;28;20482;-74
2022/04/19 00:59:10;;;;;;;8.00;6.27;;;5.10;80.90;;;;;;5068537;28;20493;-76
2022/04/19 01:01:38;;;;;;;7.47;5.13;;;5.00;81.50;;;;;;5068235;28;20475;-75
2022/04/19 01:04:05;;;;;;;7.40;5.20;;;4.80;82.00;;;;;;5064782;28;20489;-75
2022/04/19 01:06:32;;;;;;;6.17;5.53;;;4.70;82.40;;;;;;5065684;28;20478;-75
2022/04/19 01:08:59;;;;;;;5.47;4.97;;;4.80;82.10;;;;;;5066177;28;20499;-76
2022/04/19 01:14:12;;;;;;;7.37;5.27;;;4.90;81.60;;;;;;5074665;28;20622;-75
2022/04/19 01:16:40;;;;;;;5.80;5.10;;;4.90;81.20;;;;;;5060560;28;20507;-75
2022/04/19 01:19:15;;;;;;;7.03;5.43;;;4.90;80.80;;;;;;5069320;28;20478;-75
2022/04/19 01:21:46;;;;;;;5.80;4.87;;;4.80;80.30;;;;;;5050597;28;20482;-75
2022/04/19 01:24:16;;;;;;;6.60;4.83;;;4.70;81.60;;;;;;5064418;28;20953;-73
2022/04/19 01:26:43;;;;;;;6.57;5.40;;;4.40;83.40;;;;;;5063235;28;20483;-74
2022/04/19 01:29:12;;;;;;;9.40;6.77;;;4.20;84.80;;;;;;5066597;28;20544;-74
2022/04/19 01:31:41;;;;;;;7.10;5.57;;;4.10;86.10;;;;;;5062028;28;20557;-75
2022/04/19 01:34:08;;;;;;;6.87;5.57;;;4.00;86.40;;;;;;5069201;28;20498;-75
2022/04/19 01:36:35;;;;;;;12.13;7.30;;;3.90;86.40;;;;;;5069155;28;20499;-75
2022/04/19 01:39:04;;;;;;;9.17;5.97;;;4.10;85.40;;;;;;5071380;28;20517;-73
2022/04/19 01:41:31;;;;;;;6.23;5.50;;;4.20;84.30;;;;;;5067797;28;21010;-75
2022/04/19 01:43:59;;;;;;;5.50;4.83;;;4.30;83.10;;;;;;5059043;28;20490;-75
2022/04/19 01:46:26;;;;;;;6.23;5.20;;;4.40;82.00;;;;;;5057205;28;20477;-75
2022/04/19 01:48:55;;;;;;;4.67;4.23;;;4.50;82.00;;;;;;5052876;28;20483;-75
2022/04/19 01:51:21;;;;;;;5.40;4.63;;;4.50;82.00;;;;;;5075073;28;20547;-75
2022/04/19 01:53:49;;;;;;;7.40;5.30;;;4.60;81.20;;;;;;5068727;28;20481;-75
2022/04/19 01:56:18;;;;;;;8.67;4.57;;;4.60;80.70;;;;;;5093037;28;20470;-75
2022/04/19 01:58:45;;;;;;;5.53;4.60;;;4.60;80.60;;;;;;5071212;28;21135;-74
2022/04/19 02:01:12;;;;;;;5.53;4.67;;;4.60;80.70;;;;;;5053308;28;20479;-75
2022/04/19 02:03:40;;;;;;;5.40;4.57;;;4.60;80.70;;;;;;5067957;28;20486;-75
2022/04/19 02:06:09;;;;;;;5.53;4.57;;;4.60;80.60;;;;;;5059954;28;20644;-75
2022/04/19 02:08:36;;;;;;;4.67;4.23;;;4.50;80.30;;;;;;5065605;28;20896;-75
2022/04/19 02:11:03;;;;;;;10.07;4.97;;;4.50;80.30;;;;;;5078301;28;20494;-75
2022/04/19 02:13:32;;;;;;;5.67;5.17;;;4.50;80.40;;;;;;5073870;28;20475;-75
2022/04/19 02:15:59;;;;;;;6.80;4.67;;;4.50;80.30;;;;;;5070472;28;20572;-75
2022/04/19 02:18:26;;;;;;;6.17;4.70;;;4.50;80.40;;;;;;5068276;28;20554;-76
2022/04/19 02:20:53;;;;;;;7.53;4.70;;;4.50;80.40;;;;;;5062259;28;20482;-74
2022/04/19 02:23:20;;;;;;;5.73;5.00;;;4.40;80.30;;;;;;5068676;28;20509;-76
2022/04/19 02:25:51;;;;;;;6.70;4.87;;;4.30;80.60;;;;;;5070438;28;20504;-75
2022/04/19 02:28:18;;;;;;;8.50;5.30;;;4.10;81.50;;;;;;5063994;28;20468;-76
2022/04/19 02:30:46;;;;;;;7.43;5.90;;;3.90;81.80;;;;;;5075867;28;20486;-75
2022/04/19 02:33:12;;;;;;;5.13;4.63;;;3.70;82.50;;;;;;5063357;28;20528;-75
2022/04/19 02:35:39;;;;;;;6.10;5.10;;;3.50;83.80;;;;;;5069833;28;20485;-75
2022/04/19 02:38:06;;;;;;;5.67;5.03;;;3.40;85.00;;;;;;5068664;28;20803;-75
2022/04/19 02:40:33;;;;;;;8.93;5.43;;;3.30;86.30;;;;;;5065964;28;20486;-76
2022/04/19 02:43:00;;;;;;;5.90;5.20;;;3.40;86.40;;;;;;5063495;28;20485;-75
2022/04/19 02:45:27;;;;;;;6.20;5.60;;;3.50;85.80;;;;;;5073101;28;20572;-75
2022/04/19 02:48:08;;;;;;;7.40;5.70;;;3.60;84.60;;;;;;5068423;28;20490;-76
2022/04/19 02:50:41;;;;;;;7.73;4.70;;;3.80;83.80;;;;;;5067814;28;20480;-75
2022/04/19 02:53:08;;;;;;;4.40;4.00;;;3.80;83.10;;;;;;5070028;28;20476;-76
2022/04/19 02:55:35;;;;;;;6.37;5.30;;;3.90;82.60;;;;;;5075585;28;20483;-76
2022/04/19 02:58:02;;;;;;;5.83;4.80;;;4.00;82.40;;;;;;5070515;28;20486;-76
2022/04/19 03:00:29;;;;;;;8.60;5.60;;;4.00;82.00;;;;;;5067406;28;20480;-74
2022/04/19 03:02:56;;;;;;;4.90;4.30;;;4.00;82.00;;;;;;5075387;28;21157;-76
2022/04/19 03:05:24;;;;;;;6.87;5.17;;;3.90;82.00;;;;;;5070876;28;20991;-76
2022/04/19 03:07:51;;;;;;;6.57;5.43;;;3.70;82.10;;;;;;5065221;28;20494;-75
2022/04/19 03:10:21;;;;;;;6.20;5.50;;;3.50;82.80;;;;;;5062888;28;20513;-76
2022/04/19 03:12:48;;;;;;;5.50;4.70;;;3.40;83.50;;;;;;5068936;28;20471;-76
2022/04/19 03:15:15;;;;;;;7.03;5.80;;;3.40;83.70;;;;;;5069887;28;20500;-76
2022/04/19 03:17:41;;;;;;;5.63;5.13;;;3.40;83.60;;;;;;5062710;28;20483;-75
2022/04/19 03:20:11;;;;;;;5.53;5.03;;;3.40;83.60;;;;;;5078440;28;20995;-75
2022/04/19 03:28:05;;;;;;;6.47;5.00;;;3.60;82.30;;;;;;5021148;28;20477;-76
2022/04/19 03:30:31;;;;;;;7.70;4.50;;;3.70;82.70;;;;;;5074922;28;21046;-74
2022/04/19 03:32:59;;;;;;;4.87;4.20;;;3.70;81.90;;;;;;5062495;28;21025;-75
2022/04/19 03:35:27;;;;;;;6.70;5.03;;;3.70;81.80;;;;;;5068910;28;20474;-75
2022/04/19 03:37:56;;;;;;;5.77;5.27;;;3.60;81.40;;;;;;5071670;28;20487;-75
2022/04/19 03:40:24;;;;;;;5.17;4.37;;;3.60;81.50;;;;;;5076930;28;20538;-76
2022/04/19 03:42:55;;;;;;;5.87;4.47;;;3.50;81.30;;;;;;5069891;28;22318;-74
2022/04/19 03:45:21;;;;;;;6.03;4.93;;;3.50;81.30;;;;;;5071334;28;20906;-77
2022/04/19 03:47:49;;;;;;;6.73;4.20;;;3.50;81.70;;;;;;5073520;28;20496;-76
2022/04/19 03:50:16;;;;;;;7.07;5.47;;;3.50;81.90;;;;;;5068650;28;20967;-76
2022/04/19 03:52:44;;;;;;;7.03;5.47;;;3.50;82.20;;;;;;5074374;28;20483;-75
2022/04/19 03:55:12;;;;;;;8.80;5.10;;;3.40;82.30;;;;;;5072331;28;20510;-75
2022/04/19 03:57:39;;;;;;;5.83;5.30;;;3.50;82.00;;;;;;5068584;28;20470;-74
2022/04/19 04:00:07;;;;;;;8.53;5.40;;;3.50;81.50;;;;;;5065643;28;20484;-75
2022/04/19 04:02:34;;;;;;;7.70;5.47;;;3.60;81.50;;;;;;5075153;28;21375;-75
2022/04/19 04:05:00;;;;;;;5.53;5.00;;;3.60;81.00;;;;;;5061996;28;20475;-74
2022/04/19 04:07:28;;;;;;;4.40;3.97;;;3.60;81.20;;;;;;5079691;28;20487;-76
2022/04/19 04:09:55;;;;;;;6.00;5.40;;;3.50;81.50;;;;;;5072019;28;20496;-73
2022/04/19 04:12:23;;;;;;;7.13;4.53;;;3.40;81.80;;;;;;5071184;28;20509;-75
2022/04/19 04:14:50;;;;;;;9.53;5.37;;;3.30;82.40;;;;;;5076214;28;21071;-75
2022/04/19 04:17:19;;;;;;;6.20;4.87;;;3.30;82.60;;;;;;5077803;28;20485;-74
2022/04/19 04:19:47;;;;;;;7.70;5.60;;;3.10;84.10;;;;;;5071274;28;20873;-76
2022/04/19 04:22:13;;;;;;;8.97;6.20;;;3.00;84.70;;;;;;5070189;28;20486;-75
2022/04/19 04:24:41;;;;;;;4.80;4.43;;;2.90;85.50;;;;;;5065075;28;20482;-76
2022/04/19 04:27:08;;;;;;;8.13;5.50;;;2.80;85.50;;;;;;5087314;28;20488;-74
2022/04/19 04:29:37;;;;;;;8.20;5.40;;;3.00;84.70;;;;;;5074626;28;20482;-75
2022/04/19 04:32:05;;;;;;;4.07;3.67;;;3.10;84.00;;;;;;5072737;28;20498;-76
2022/04/19 04:34:33;;;;;;;5.37;4.60;;;3.10;83.40;;;;;;5070019;28;20486;-76
2022/04/19 04:37:00;;;;;;;5.13;4.70;;;3.10;83.00;;;;;;5059479;28;20485;-77
2022/04/19 04:39:27;;;;;;;6.63;5.07;;;3.00;83.00;;;;;;5083893;28;21031;-75
2022/04/19 04:41:53;;;;;;;5.67;4.87;;;3.00;83.10;;;;;;5066243;28;20498;-76
2022/04/19 04:44:20;;;;;;;6.03;4.77;;;3.10;83.50;;;;;;5063682;28;20486;-75
2022/04/19 04:49:39;;;;;;;4.43;4.03;;;3.20;82.30;;;;;;5083968;28;20480;-76
2022/04/19 04:52:07;;;;;;;6.80;4.57;;;3.20;82.40;;;;;;5072275;28;20910;-76
2022/04/19 04:54:35;;;;;;;6.40;5.63;;;3.20;82.60;;;;;;5068765;28;20532;-76
2022/04/19 04:57:02;;;;;;;5.03;4.50;;;3.00;82.50;;;;;;5070129;28;20482;-76
2022/04/19 04:59:30;;;;;;;8.97;5.37;;;3.10;82.80;;;;;;5070944;28;20485;-76
2022/04/19 05:01:58;;;;;;;7.50;4.57;;;3.00;83.00;;;;;;5077928;28;20869;-76
2022/04/19 05:04:25;;;;;;;7.53;4.57;;;3.10;83.30;;;;;;5079768;28;20479;-77
2022/04/19 05:06:52;;;;;;;5.43;4.90;;;3.00;83.60;;;;;;5077105;28;20491;-76
2022/04/19 05:09:19;;;;;;;7.07;5.57;;;3.00;83.70;;;;;;5072343;28;20486;-77
2022/04/19 05:11:46;;;;;;;7.97;5.03;;;2.90;84.00;;;;;;5076350;28;20509;-77
2022/04/19 05:14:14;;;;;;;8.20;5.53;;;2.80;84.80;;;;;;5070613;28;21398;-77
2022/04/19 05:16:42;;;;;;;6.33;5.47;;;2.70;85.50;;;;;;5077385;28;20919;-76
2022/04/19 05:19:10;;;;;;;5.53;4.67;;;2.70;85.90;;;;;;5068400;28;20482;-76
2022/04/19 05:21:37;;;;;;;6.70;5.10;;;2.80;86.10;;;;;;5068789;28;21375;-76
2022/04/19 05:24:05;;;;;;;7.73;4.87;;;2.90;86.00;;;;;;5076808;28;20499;-77
2022/04/19 05:26:32;;;;;;;4.60;4.17;;;3.10;85.70;;;;;;5068877;28;20480;-76
2022/04/19 05:28:58;;;;;;;5.60;4.87;;;3.20;85.30;;;;;;5076495;28;20904;-76
2022/04/19 05:31:25;;;;;;;5.53;4.97;;;3.20;84.50;;;;;;5070343;28;20492;-75
2022/04/19 05:33:52;;;;;;;5.37;4.97;;;3.30;84.60;;;;;;5066625;28;20489;-75
2022/04/19 05:36:22;;;;;;;7.10;6.33;;;3.30;85.30;;;;;;5075020;28;20472;-73
2022/04/19 05:38:52;;;;;;;6.00;5.00;;;3.40;85.10;;;;;;5060685;28;20490;-76
2022/04/19 05:41:20;;;;;;;6.57;5.10;;;3.50;84.70;;;;;;5068023;28;21050;-76
2022/04/19 05:43:47;;;;;;;5.73;5.13;;;3.50;85.40;;;;;;5071356;28;20561;-75
2022/04/19 05:46:16;;;;;;;9.03;6.20;;;3.50;86.40;;;;;;5067344;28;20507;-76
2022/04/19 05:48:43;;;;;;;5.97;5.37;;;3.60;86.70;;;;;;5071112;28;20478;-78
2022/04/19 05:51:10;;;;;;;12.60;5.80;;;3.70;86.50;;;;;;5071193;28;20490;-76
2022/04/19 05:53:39;;;;;;;7.90;6.03;;;3.90;86.30;;;;;;5068172;28;20563;-74
2022/04/19 05:56:06;;;;;;;8.17;6.50;;;4.00;86.00;;;;;;5074327;28;20481;-74
2022/04/19 05:58:32;;;;;;;7.03;6.20;;;4.20;86.50;;;;;;5072172;28;20869;-75
2022/04/19 06:01:01;;;;;;;9.37;6.30;;;4.40;87.00;;;;;;5070624;28;20478;-77
2022/04/19 06:06:14;;;;;;;9.30;7.13;;;4.80;87.90;;;;;;5051766;28;20489;-77
2022/04/19 06:08:43;;;;;;;8.80;6.50;;;5.20;88.60;;;;;;5067808;28;20493;-77
2022/04/19 06:11:12;;;;;;;9.80;7.37;;;5.50;88.60;;;;;;5066285;28;20578;-76
2022/04/19 06:13:38;;;;;;;9.17;7.23;;;5.90;87.50;;;;;;5069882;28;20879;-76
2022/04/19 06:16:06;;;;;;;8.97;6.80;;;6.20;86.30;;;;;;5066201;28;20478;-79
2022/04/19 06:18:33;;;;;;;7.17;6.47;;;6.50;87.00;;;;;;5057479;28;20516;-81
2022/04/19 06:20:59;;;;;;;15.33;6.97;;;6.90;88.00;;;;;;5083424;28;20488;-78
2022/04/19 06:23:26;;;;;;;21.60;6.00;;;7.40;86.40;;;;;;5072348;28;20487;-76
2022/04/19 06:25:56;;;;;;;7.73;5.70;;;7.90;85.00;;;;;;5069351;28;20485;-79
2022/04/19 06:28:24;;;;;;;12.50;6.20;;;8.50;82.80;;;;;;5067813;28;20865;-78
2022/04/19 06:30:51;;;;;;;7.20;5.97;;;9.00;84.00;;;;;;5068921;28;20483;-79
2022/04/19 06:33:17;;;;;;;7.57;6.50;;;9.90;84.10;;;;;;5057316;28;20460;-79
2022/04/19 06:35:44;;;;;;;7.90;5.47;;;10.50;81.80;;;;;;5060292;28;20492;-76
2022/04/19 06:38:11;;;;;;;7.30;6.63;;;11.10;78.50;;;;;;5062616;28;20482;-77
2022/04/19 06:40:38;;;;;;;7.30;6.17;;;11.70;78.70;;;;;;5076010;28;20523;-80
2022/04/19 06:43:06;;;;;;;6.83;6.13;;;12.40;77.50;;;;;;5065803;28;20476;-76
2022/04/19 06:45:33;;;;;;;9.57;6.90;;;13.20;77.20;;;;;;5069379;28;20488;-76
2022/04/19 06:48:01;;;;;;;9.43;7.07;;;14.10;76.20;;;;;;5064879;28;20494;-80
2022/04/19 06:50:29;;;;;;;12.33;10.07;;;14.80;74.10;;;;;;5067284;28;20795;-77
2022/04/19 06:52:56;;;;;;;18.23;9.87;;;15.40;72.30;;;;;;5069118;28;20962;-82
2022/04/19 06:55:25;;;;;;;12.23;10.07;;;15.90;72.20;;;;;;5068831;28;20488;-80
2022/04/19 06:57:53;;;;;;;9.00;6.57;;;16.20;71.40;;;;;;5068423;28;20846;-81
2022/04/19 07:00:21;;;;;;;6.60;5.60;;;16.50;70.60;;;;;;5065266;28;20476;-79
2022/04/19 07:02:48;;;;;;;9.20;6.60;;;16.70;69.80;;;;;;5069611;28;20476;-79
2022/04/19 07:05:16;;;;;;;5.57;5.07;;;16.80;69.50;;;;;;5070837;28;20467;-79
2022/04/19 07:07:43;;;;;;;9.37;5.20;;;16.90;69.20;;;;;;5076602;28;20513;-78
2022/04/19 07:10:11;;;;;;;6.70;5.53;;;17.00;69.30;;;;;;5064613;28;20505;-76
2022/04/19 07:12:39;;;;;;;7.27;6.43;;;17.00;68.70;;;;;;5067015;28;20524;-80
2022/04/19 07:15:08;;;;;;;7.53;5.30;;;17.00;69.00;;;;;;5071327;28;20484;-78
2022/04/19 07:17:40;;;;;;;7.50;5.53;;;17.10;69.90;;;;;;5059701;28;20553;-78
2022/04/19 07:28:21;;;;;;;5.77;5.20;;;17.40;67.70;;;;;;5064810;28;20561;-78
2022/04/19 07:30:48;;;;;;;5.57;5.07;;;17.50;67.30;;;;;;5067378;28;20485;-79
2022/04/19 07:33:17;;;;;;;5.43;4.93;;;17.60;67.60;;;;;;5066273;28;20486;-80
2022/04/19 07:35:44;;;;;;;5.80;5.30;;;17.50;65.90;;;;;;5063238;28;20520;-80
2022/04/19 07:38:11;;;;;;;5.20;4.70;;;17.50;69.30;;;;;;5073684;28;20831;-81
2022/04/19 07:40:38;;;;;;;5.20;4.70;;;17.60;67.50;;;;;;5067498;28;20964;-83
2022/04/19 07:43:05;;;;;;;9.07;5.60;;;17.70;68.00;;;;;;5080903;28;20487;-76
2022/04/19 07:45:32;;;;;;;5.90;4.83;;;17.80;64.70;;;;;;5078479;28;20557;-75
2022/04/19 07:47:59;;;;;;;5.37;4.87;;;18.00;66.10;;;;;;5070283;28;20477;-79
2022/04/19 07:50:29;;;;;;;6.40;5.80;;;18.10;66.00;;;;;;5065477;28;20481;-76
2022/04/19 07:52:56;;;;;;;6.47;5.77;;;18.30;67.10;;;;;;5072783;28;20471;-76
2022/04/19 07:55:24;;;;;;;6.83;5.40;;;18.40;65.20;;;;;;5063869;28;20489;-79
2022/04/19 07:57:51;;;;;;;7.10;5.90;;;18.60;65.10;;;;;;5069843;28;21071;-79
2022/04/19 08:00:18;;;;;;;6.63;5.63;;;18.80;65.90;;;;;;5070435;28;20482;-78
2022/04/19 08:02:45;;;;;;;6.00;5.40;;;18.90;64.90;;;;;;5068247;28;20497;-79
2022/04/19 08:05:12;;;;;;;5.93;5.40;;;19.10;65.60;;;;;;5075581;28;20923;-77
2022/04/19 08:07:40;;;;;;;8.10;5.20;;;19.30;65.90;;;;;;5064290;28;20490;-76
2022/04/19 08:10:08;;;;;;;6.40;5.87;;;19.50;65.20;;;;;;5072083;28;20515;-79
2022/04/19 08:12:34;;;;;;;7.70;5.97;;;19.70;68.00;;;;;;5069017;28;20489;-77
2022/04/19 08:15:01;;;;;;;6.93;5.63;;;19.80;65.70;;;;;;5072184;28;20475;-76
2022/04/19 08:17:30;;;;;;;11.50;6.30;;;19.90;65.90;;;;;;5071905;28;20477;-77
2022/04/19 08:19:57;;;;;;;6.50;5.63;;;20.00;66.10;;;;;;5066888;28;20830;-78
2022/04/19 08:22:24;;;;;;;6.67;5.73;;;19.80;63.20;;;;;;5073938;28;20931;-75
2022/04/19 08:24:52;;;;;;;8.17;5.30;;;19.90;67.60;;;;;;5064750;28;20482;-76
2022/04/19 08:27:20;;;;;;;6.50;5.23;;;20.10;64.00;;;;;;5071612;28;20488;-78
2022/04/19 08:29:48;;;;;;;8.50;5.20;;;20.30;65.00;;;;;;5068525;28;20496;-76
2022/04/19 08:32:15;;;;;;;5.93;5.30;;;20.50;63.10;;;;;;5065655;28;20529;-74
2022/04/19 08:34:42;;;;;;;7.20;5.67;;;20.70;62.20;;;;;;5073222;28;20474;-79
2022/04/19 08:37:10;;;;;;;5.43;4.80;;;20.80;65.00;;;;;;5064684;28;20475;-77
2022/04/19 08:39:38;;;;;;;8.03;5.90;;;20.90;60.60;;;;;;5065250;28;20472;-73
2022/04/19 08:42:07;;;;;;;5.93;5.17;;;21.10;59.70;;;;;;5081653;28;21045;-77
2022/04/19 08:44:36;;;;;;;5.93;4.97;;;21.30;62.70;;;;;;5069053;28;20544;-80
2022/04/19 08:47:07;;;;;;;5.13;4.40;;;21.50;60.70;;;;;;5070578;28;21047;-77
2022/04/19 08:49:39;;;;;;;10.80;5.30;;;21.50;60.90;;;;;;5074347;28;20583;-82
2022/04/19 08:52:06;;;;;;;7.10;4.93;;;21.60;60.60;;;;;;5076952;28;20517;-75
2022/04/19 08:57:31;;;;;;;4.90;4.17;;;22.00;59.30;;;;;;5067779;28;20623;-80
2022/04/19 08:59:59;;;;;;;5.57;4.90;;;22.00;57.30;;;;;;5058271;28;20480;-76
2022/04/19 09:02:27;;;;;;;6.00;3.97;;;22.40;57.80;;;;;;5074634;28;20824;-76
2022/04/19 09:04:55;;;;;;;4.77;4.30;;;22.60;58.10;;;;;;5080588;28;20480;-77
2022/04/19 09:07:35;;;;;;;4.53;4.07;;;22.70;57.00;;;;;;5069694;28;20521;-79
2022/04/19 09:10:02;;;;;;;6.70;4.20;;;22.80;57.30;;;;;;5068706;28;20473;-77
2022/04/19 09:12:30;;;;;;;7.13;5.00;;;22.90;56.90;;;;;;5078579;28;20482;-75
2022/04/19 09:15:00;;;;;;;7.70;4.73;;;22.90;55.10;;;;;;5072412;28;20468;-79
2022/04/19 09:17:34;;;;;;;5.77;4.37;;;23.10;55.40;;;;;;5071765;28;20540;-77
2022/04/19 09:20:12;;;;;;;6.63;4.67;;;23.10;55.90;;;;;;5061515;28;20476;-76
2022/04/19 09:22:39;;;;;;;6.07;5.33;;;23.30;56.20;;;;;;5063012;28;20477;-78
2022/04/19 09:25:17;;;;;;;4.97;4.53;;;23.40;55.00;;;;;;5076999;28;20486;-79
2022/04/19 09:27:46;;;;;;;6.83;4.83;;;23.40;53.20;;;;;;5070335;28;21024;-76
2022/04/19 09:30:18;;;;;;;3.23;2.93;;;23.40;53.80;;;;;;5069288;28;21029;-77
2022/04/19 09:33:09;;;;;;;7.77;4.53;;;23.40;54.50;;;;;;5061882;28;20818;-73
2022/04/19 09:35:37;;;;;;;4.57;3.93;;;23.40;54.50;;;;;;5044936;28;20929;-77
2022/04/19 09:38:05;;;;;;;5.67;3.70;;;23.50;56.10;;;;;;5080918;28;20504;-74
2022/04/19 09:40:35;;;;;;;6.07;4.83;;;23.60;52.80;;;;;;5070915;28;20849;-76
2022/04/19 09:43:15;;;;;;;5.07;4.13;;;23.60;52.70;;;;;;5055794;28;20477;-74
2022/04/19 09:45:56;;;;;;;4.60;4.10;;;23.50;52.30;;;;;;5071745;28;20477;-78
2022/04/19 09:48:25;;;;;;;5.60;4.40;;;23.60;52.00;;;;;;5083111;28;20480;-79
2022/04/19 09:50:54;;;;;;;4.77;3.90;;;23.60;53.20;;;;;;5069448;28;20597;-76
2022/04/19 09:53:22;;;;;;;6.63;4.57;;;23.50;51.70;;;;;;5067975;28;21033;-78
2022/04/19 09:55:51;;;;;;;6.00;4.50;;;23.60;50.30;;;;;;5077075;28;20485;-77
2022/04/19 09:58:20;;;;;;;8.97;4.80;;;23.70;53.20;;;;;;5064920;28;20893;-74
2022/04/19 10:00:48;;;;;;;9.73;5.50;;;23.70;53.40;;;;;;5069429;28;20477;-80
2022/04/19 10:08:47;;;;;;;6.20;4.30;;;23.60;51.60;;;;;;5067748;28;20775;-76
2022/04/19 10:11:16;;;;;;;5.60;5.00;;;23.60;50.70;;;;;;5062707;28;20897;-75
2022/04/19 10:13:46;;;;;;;6.27;4.37;;;23.60;54.20;;;;;;5069667;28;21001;-77
2022/04/19 10:16:15;;;;;;;4.70;4.17;;;23.70;54.30;;;;;;5071863;28;20916;-78
2022/04/19 10:18:44;;;;;;;8.50;4.50;;;23.90;53.70;;;;;;5064865;28;20518;-77
2022/04/19 10:21:16;;;;;;;7.93;4.50;;;24.00;53.30;;;;;;5076983;28;20914;-76
2022/04/19 10:23:43;;;;;;;3.93;3.63;;;24.00;52.80;;;;;;5070745;28;20493;-77
2022/04/19 10:26:19;;;;;;;6.53;5.80;;;24.10;54.70;;;;;;5058193;28;21013;-77
2022/04/19 10:28:51;;;;;;;8.00;4.77;;;24.10;51.80;;;;;;5064142;28;20508;-73
2022/04/19 10:31:27;;;;;;;7.77;4.87;;;24.10;51.10;;;;;;5058489;28;20843;-75
2022/04/19 10:33:53;;;;;;;7.07;4.80;;;24.10;52.00;;;;;;5067968;28;20746;-71
2022/04/19 10:36:22;;;;;;;4.87;4.47;;;24.30;54.30;;;;;;5063948;28;20483;-74
2022/04/19 10:39:19;;;;;;;4.30;3.97;;;24.40;54.10;;;;;;5072789;28;20485;-75
2022/04/19 10:41:48;;;;;;;4.50;4.10;;;24.40;51.90;;;;;;5062438;28;20475;-73
2022/04/19 10:44:23;;;;;;;71.50;49.03;;;24.40;52.80;;;;;;5065367;28;20524;-73
2022/04/19 10:47:14;;;;;;;5.10;4.60;;;24.40;49.70;;;;;;5058711;28;20635;-74
2022/04/19 10:50:06;;;;;;;4.40;4.00;;;24.40;52.30;;;;;;5049957;28;20490;-72
2022/04/19 10:52:49;;;;;;;4.40;4.00;;;24.40;50.10;;;;;;5061553;28;20466;-74
2022/04/19 10:55:25;;;;;;;6.37;5.03;;;24.40;52.00;;;;;;5058799;28;20461;-76
2022/04/19 11:00:47;;;;;;;5.07;4.57;;;24.50;52.30;;;;;;5053594;28;20984;-74
2022/04/19 11:03:15;;;;;;;4.97;4.23;;;24.50;51.60;;;;;;5071958;28;20476;-76
2022/04/19 11:05:44;;;;;;;25.83;18.33;;;24.50;53.40;;;;;;5064492;28;20478;-74
2022/04/19 11:08:33;;;;;;;30.30;23.20;;;24.60;51.30;;;;;;5069144;28;20877;-78
2022/04/19 11:11:23;;;;;;;16.43;13.47;;;24.40;49.60;;;;;;5060479;28;20962;-78
2022/04/19 11:14:34;;;;;;;5.80;4.33;;;24.30;47.70;;;;;;5070217;28;20495;-79
2022/04/19 11:17:22;;;;;;;5.00;4.60;;;24.20;51.90;;;;;;5074848;28;20584;-76
2022/04/19 11:19:53;;;;;;;6.13;5.33;;;23.90;47.80;;;;;;5070072;28;20483;-77
2022/04/19 11:22:42;;;;;;;5.30;4.43;;;23.80;51.50;;;;;;5072468;28;20561;-75
2022/04/19 11:25:09;;;;;;;14.03;8.37;;;23.90;50.10;;;;;;5062980;28;20602;-75
2022/04/19 11:28:14;;;;;;;4.20;3.33;;;24.10;53.10;;;;;;5068257;28;20478;-74
2022/04/19 11:30:46;;;;;;;4.87;3.80;;;24.30;51.30;;;;;;5066024;28;21010;-76
2022/04/19 11:33:23;;;;;;;4.40;4.00;;;24.40;50.40;;;;;;5065315;28;20568;-77
2022/04/19 11:35:59;;;;;;;4.33;3.93;;;24.40;48.80;;;;;;5069557;28;20486;-75
2022/04/19 11:38:26;;;;;;;12.73;3.27;;;24.40;49.60;;;;;;5061064;28;20513;-79
2022/04/19 11:49:09;;;;;;;3.27;2.97;;;24.20;48.10;;;;;;5071896;28;20480;-76
2022/04/19 11:51:38;;;;;;;6.10;3.37;;;24.20;50.50;;;;;;5079114;28;20532;-77
2022/04/19 11:54:08;;;;;;;4.77;3.40;;;24.40;50.50;;;;;;5079603;28;20490;-75
2022/04/19 11:56:37;;;;;;;4.80;4.40;;;24.60;50.50;;;;;;5069456;28;20623;-74
2022/04/19 11:59:05;;;;;;;5.87;3.87;;;24.70;50.30;;;;;;5072335;28;20458;-76
2022/04/19 12:01:32;;;;;;;4.80;3.40;;;24.70;50.40;;;;;;5072595;28;21005;-77
2022/04/19 12:03:59;;;;;;;5.10;4.53;;;24.90;49.80;;;;;;5072884;28;20482;-79
2022/04/19 12:06:28;;;;;;;5.40;3.40;;;24.90;47.20;;;;;;5066153;28;20558;-78
2022/04/19 12:08:55;;;;;;;3.83;3.40;;;25.10;50.10;;;;;;5076223;28;20566;-77
2022/04/19 12:11:27;;;;;;;4.13;3.00;;;25.00;48.10;;;;;;5062054;28;20485;-75
2022/04/19 12:13:55;;;;;;;4.10;3.50;;;24.90;50.30;;;;;;5069590;28;20494;-76
2022/04/19 12:16:29;;;;;;;4.63;3.40;;;24.80;48.40;;;;;;5071616;28;20473;-77
2022/04/19 12:18:58;;;;;;;3.77;3.43;;;24.70;47.00;;;;;;5074435;28;20480;-75
2022/04/19 12:21:39;;;;;;;3.43;3.13;;;24.60;49.80;;;;;;5071390;28;20478;-78
2022/04/19 12:24:07;;;;;;;4.03;3.10;;;24.70;49.00;;;;;;5064862;28;20562;-76
2022/04/19 12:26:34;;;;;;;3.90;3.60;;;24.80;48.80;;;;;;5078634;28;21078;-77
2022/04/19 12:29:10;;;;;;;6.27;3.43;;;24.90;49.10;;;;;;5068070;28;20483;-78
2022/04/19 12:31:39;;;;;;;4.10;3.23;;;24.90;49.00;;;;;;5068862;28;20479;-76
2022/04/19 12:34:07;;;;;;;4.00;3.60;;;24.80;48.50;;;;;;5069102;28;21765;-79
2022/04/19 12:36:44;;;;;;;4.87;4.10;;;24.70;49.30;;;;;;5066549;28;20466;-76
2022/04/19 12:39:10;;;;;;;4.03;3.23;;;24.70;49.80;;;;;;5073300;28;20476;-79
2022/04/19 12:41:39;;;;;;;4.70;4.20;;;24.80;49.10;;;;;;5067365;28;20496;-75
2022/04/19 12:44:08;;;;;;;4.20;3.80;;;24.40;47.80;;;;;;5064556;28;26726;-79
2022/04/19 12:46:40;;;;;;;4.50;4.03;;;24.20;48.60;;;;;;5062792;28;20483;-76
2022/04/19 12:49:07;;;;;;;4.47;3.73;;;24.30;48.30;;;;;;5075496;28;20896;-76
2022/04/19 12:51:35;;;;;;;5.70;3.70;;;24.50;51.70;;;;;;5074604;28;20482;-75
2022/04/19 12:54:08;;;;;;;3.93;3.63;;;24.60;50.80;;;;;;5071945;28;20477;-75
2022/04/19 12:56:36;;;;;;;4.20;3.80;;;24.60;48.20;;;;;;5070299;28;20513;-75
2022/04/19 12:59:03;;;;;;;5.47;3.67;;;24.60;47.40;;;;;;5076264;28;20482;-78
2022/04/19 13:01:29;;;;;;;4.00;3.20;;;24.50;48.90;;;;;;5063075;28;20494;-81
2022/04/19 13:03:56;;;;;;;3.43;3.13;;;24.20;46.60;;;;;;5065787;28;20489;-78
2022/04/19 13:14:37;;;;;;;6.93;4.97;;;24.50;48.00;;;;;;5070251;28;20492;-78
2022/04/19 13:17:04;;;;;;;3.70;2.93;;;24.70;47.50;;;;;;5070091;28;20513;-79
2022/04/19 13:19:32;;;;;;;3.97;3.40;;;24.90;47.80;;;;;;5066047;28;21069;-80
2022/04/19 13:21:58;;;;;;;3.67;3.37;;;25.00;50.60;;;;;;5066325;28;20479;-76
2022/04/19 13:24:27;;;;;;;6.70;4.30;;;24.80;47.30;;;;;;5061768;28;20752;-79
2022/04/19 13:26:54;;;;;;;5.23;3.10;;;24.90;47.20;;;;;;5065369;28;20553;-79
2022/04/19 13:29:21;;;;;;;3.17;2.87;;;24.90;50.60;;;;;;5069122;28;20820;-77
2022/04/19 13:31:48;;;;;;;3.60;2.77;;;25.20;50.40;;;;;;5067734;28;20478;-77
2022/04/19 13:34:15;;;;;;;2.70;2.43;;;25.30;50.10;;;;;;5056682;28;20500;-76
2022/04/19 13:36:43;;;;;;;3.50;2.87;;;25.50;49.70;;;;;;5074029;28;20904;-76
2022/04/19 13:39:10;;;;;;;3.13;2.93;;;25.50;48.60;;;;;;5062248;28;20485;-78
2022/04/19 13:41:41;;;;;;;3.00;2.70;;;25.60;47.90;;;;;;5065907;28;20478;-74
2022/04/19 13:44:10;;;;;;;3.40;2.80;;;25.40;48.30;;;;;;5057123;28;20474;-78
2022/04/19 13:46:38;;;;;;;3.30;3.00;;;25.40;48.00;;;;;;5065214;28;20482;-81
2022/04/19 13:49:04;;;;;;;3.00;2.70;;;25.10;47.20;;;;;;5069680;28;20709;-76